createdAt,value
2018-07-12T00:02:16.908Z,62.10
2018-07-12T00:04:44.275Z,61.50
2018-07-12T00:07:11.602Z,60.70
2018-07-12T00:09:39.081Z,60.40
2018-07-12T00:12:06.397Z,57.90
2018-07-12T00:14:33.829Z,57.30
2018-07-12T00:17:01.384Z,60.30
2018-07-12T00:19:28.731Z,60.70
2018-07-12T00:21:56.146Z,61.20
2018-07-12T00:24:24.241Z,60.80
2018-07-12T00:26:51.832Z,60.70
2018-07-12T00:29:19.168Z,60.30
2018-07-12T00:31:46.467Z,60.60
2018-07-12T00:36:41.456Z,60.80
2018-07-12T00:39:08.794Z,61.20
2018-07-12T00:41:36.112Z,61.10
2018-07-12T00:44:03.389Z,60.30
2018-07-12T00:46:30.734Z,58.10
2018-07-12T00:48:58.038Z,60.10
2018-07-12T00:51:25.516Z,60.50
2018-07-12T00:53:52.843Z,60.30
2018-07-12T00:56:20.129Z,60.20
2018-07-12T00:58:47.457Z,61.00
2018-07-12T01:01:14.906Z,60.30
2018-07-12T01:03:42.196Z,60.30
2018-07-12T01:06:09.568Z,59.70
2018-07-12T01:08:36.852Z,60.20
2018-07-12T01:11:04.180Z,60.50
2018-07-12T01:13:31.502Z,60.90
2018-07-12T01:15:58.809Z,62.00
2018-07-12T01:18:26.125Z,62.30
2018-07-12T01:20:53.421Z,61.80
2018-07-12T01:23:20.745Z,61.20
2018-07-12T01:25:48.029Z,60.70
2018-07-12T01:28:15.301Z,61.10
2018-07-12T01:30:43.269Z,60.80
2018-07-12T01:33:10.577Z,61.40
2018-07-12T01:35:37.925Z,60.20
2018-07-12T01:38:05.231Z,60.30
2018-07-12T01:40:32.584Z,60.00
2018-07-12T01:42:59.865Z,60.30
2018-07-12T01:45:27.197Z,60.20
2018-07-12T01:47:54.498Z,60.10
2018-07-12T01:50:21.925Z,56.40
2018-07-12T01:52:49.196Z,60.10
2018-07-12T01:55:16.524Z,60.90
2018-07-12T01:57:43.833Z,60.30
2018-07-12T02:00:11.143Z,60.10
2018-07-12T02:02:38.476Z,60.20
2018-07-12T02:05:05.809Z,60.00
2018-07-12T02:07:33.303Z,60.30
2018-07-12T02:10:00.764Z,61.40
2018-07-12T02:12:28.094Z,61.60
2018-07-12T02:14:55.377Z,61.10
2018-07-12T02:17:22.713Z,60.60
2018-07-12T02:19:50.089Z,60.20
2018-07-12T02:22:17.424Z,60.20
2018-07-12T02:24:44.750Z,61.70
2018-07-12T02:27:12.048Z,62.30
2018-07-12T02:29:39.333Z,61.60
2018-07-12T02:32:06.630Z,61.80
2018-07-12T02:34:34.101Z,62.20
2018-07-12T02:37:01.425Z,62.40
2018-07-12T02:39:28.941Z,63.00
2018-07-12T02:41:56.362Z,63.30
2018-07-12T02:44:24.053Z,63.50
2018-07-12T02:46:51.353Z,64.00
2018-07-12T02:49:18.971Z,63.80
2018-07-12T02:51:46.406Z,63.90
2018-07-12T02:54:13.708Z,64.30
2018-07-12T02:56:41.000Z,64.40
2018-07-12T02:59:08.318Z,64.60
2018-07-12T03:01:35.615Z,63.40
2018-07-12T03:04:02.908Z,63.10
2018-07-12T03:06:30.222Z,63.00
2018-07-12T03:08:57.558Z,62.90
2018-07-12T03:11:24.867Z,62.50
2018-07-12T03:13:52.330Z,62.20
2018-07-12T03:16:19.667Z,62.20
2018-07-12T03:18:46.953Z,62.00
2018-07-12T03:21:14.246Z,62.80
2018-07-12T03:23:41.557Z,63.10
2018-07-12T03:26:08.857Z,63.20
2018-07-12T03:28:36.144Z,63.20
2018-07-12T03:31:03.469Z,62.90
2018-07-12T03:33:30.744Z,64.00
2018-07-12T03:35:58.097Z,63.80
2018-07-12T03:38:25.420Z,63.70
2018-07-12T03:40:52.814Z,63.20
2018-07-12T03:43:20.309Z,63.60
2018-07-12T03:45:47.614Z,64.40
2018-07-12T03:48:14.948Z,64.90
2018-07-12T03:50:42.233Z,64.20
2018-07-12T03:53:09.543Z,63.90
2018-07-12T03:55:36.933Z,63.90
2018-07-12T03:58:04.227Z,64.00
2018-07-12T04:00:31.521Z,64.00
2018-07-12T04:02:58.855Z,63.30
2018-07-12T04:05:26.147Z,61.90
2018-07-12T04:07:53.480Z,60.70
2018-07-12T04:10:20.882Z,60.60
2018-07-12T04:12:48.196Z,62.30
2018-07-12T04:15:16.486Z,62.20
2018-07-12T04:17:43.805Z,62.80
2018-07-12T04:20:11.097Z,63.50
2018-07-12T04:22:38.795Z,63.60
2018-07-12T04:25:06.097Z,62.80
2018-07-12T04:27:33.377Z,62.10
2018-07-12T04:30:01.046Z,61.40
2018-07-12T04:32:28.354Z,60.90
2018-07-12T04:34:55.656Z,60.90
2018-07-12T04:37:23.002Z,61.50
2018-07-12T04:39:50.323Z,61.40
2018-07-12T04:42:17.660Z,60.90
2018-07-12T04:44:45.019Z,60.60
2018-07-12T04:47:12.296Z,59.50
2018-07-12T04:49:39.621Z,60.50
2018-07-12T04:52:06.903Z,60.00
2018-07-12T04:54:34.225Z,59.60
2018-07-12T04:57:01.528Z,57.70
2018-07-12T04:59:28.845Z,57.40
2018-07-12T05:01:56.128Z,59.20
2018-07-12T05:04:23.492Z,59.30
2018-07-12T05:06:50.777Z,58.50
2018-07-12T05:09:18.069Z,57.80
2018-07-12T05:11:45.386Z,58.40
2018-07-12T05:14:12.707Z,60.00
2018-07-12T05:16:40.043Z,60.30
2018-07-12T05:19:07.357Z,60.70
2018-07-12T05:21:34.758Z,59.20
2018-07-12T05:24:02.046Z,60.30
2018-07-12T05:26:29.374Z,60.20
2018-07-12T05:28:56.673Z,58.40
2018-07-12T05:31:24.014Z,55.90
2018-07-12T05:33:51.337Z,56.00
2018-07-12T05:36:28.489Z,56.50
2018-07-12T05:38:57.911Z,55.90
2018-07-12T05:41:26.494Z,50.00
2018-07-12T05:43:54.912Z,47.10
2018-07-12T05:46:23.365Z,48.30
2018-07-12T05:48:51.970Z,48.60
2018-07-12T05:51:20.478Z,48.80
2018-07-12T05:53:48.949Z,51.90
2018-07-12T05:56:17.902Z,47.20
2018-07-12T05:58:46.368Z,45.50
2018-07-12T06:01:26.417Z,44.00
2018-07-12T06:03:54.937Z,45.80
2018-07-12T06:06:23.456Z,44.20
2018-07-12T06:11:20.143Z,44.60
2018-07-12T06:16:16.808Z,46.00
2018-07-12T06:18:45.300Z,46.50
2018-07-12T06:21:13.790Z,44.80
2018-07-12T06:23:42.316Z,44.00
2018-07-12T06:26:10.905Z,43.70
2018-07-12T06:28:39.435Z,43.90
2018-07-12T06:31:07.993Z,42.90
2018-07-12T06:33:36.452Z,41.60
2018-07-12T06:36:04.897Z,41.00
2018-07-12T06:38:33.386Z,41.80
2018-07-12T06:41:02.408Z,42.90
2018-07-12T06:43:30.869Z,43.90
2018-07-12T06:45:59.492Z,42.00
2018-07-12T06:50:56.881Z,42.20
2018-07-12T06:53:25.563Z,41.80
2018-07-12T06:58:22.690Z,42.10
2018-07-12T07:00:51.192Z,40.70
2018-07-12T07:03:19.824Z,41.10
2018-07-12T07:05:48.311Z,40.40
2018-07-12T07:08:16.770Z,41.00
2018-07-12T07:10:45.226Z,42.90
2018-07-12T07:15:42.056Z,40.30
2018-07-12T07:18:10.634Z,40.30
2018-07-12T07:20:39.090Z,40.00
2018-07-12T07:23:07.584Z,41.10
2018-07-12T07:25:36.151Z,40.90
2018-07-12T07:28:04.614Z,40.50
2018-07-12T07:30:33.053Z,40.20
2018-07-12T07:33:01.699Z,41.60
2018-07-12T07:35:30.208Z,40.60
2018-07-12T07:37:58.719Z,41.30
2018-07-12T07:40:27.186Z,41.50
2018-07-12T07:42:55.814Z,40.80
2018-07-12T07:45:24.195Z,41.30
2018-07-12T07:47:52.747Z,41.60
2018-07-12T07:50:21.224Z,41.90
2018-07-12T07:52:50.406Z,41.80
2018-07-12T07:55:18.880Z,41.70
2018-07-12T07:57:47.594Z,42.30
2018-07-12T08:00:16.112Z,41.50
2018-07-12T08:02:44.565Z,41.20
2018-07-12T08:05:13.268Z,41.30
2018-07-12T08:07:42.166Z,42.30
2018-07-12T08:10:10.654Z,41.80
2018-07-12T08:12:39.701Z,42.90
2018-07-12T08:15:08.358Z,43.80
2018-07-12T08:17:37.500Z,43.40
2018-07-12T08:20:06.887Z,43.80
2018-07-12T08:22:35.419Z,42.40
2018-07-12T08:25:04.547Z,43.80
2018-07-12T08:27:33.226Z,44.20
2018-07-12T08:30:01.843Z,44.10
2018-07-12T08:32:30.828Z,42.70
2018-07-12T08:34:59.346Z,43.70
2018-07-12T08:37:27.865Z,43.80
2018-07-12T08:39:57.201Z,44.10
2018-07-12T08:42:25.774Z,43.60
2018-07-12T08:44:54.266Z,44.10
2018-07-12T08:47:22.747Z,45.00
2018-07-12T08:49:51.311Z,48.10
2018-07-12T08:52:19.853Z,46.20
2018-07-12T08:54:48.334Z,44.70
2018-07-12T08:59:45.652Z,43.60
2018-07-12T09:02:14.223Z,44.40
2018-07-12T09:04:42.844Z,43.40
2018-07-12T09:07:11.326Z,43.30
2018-07-12T09:09:39.902Z,43.50
2018-07-12T09:12:08.488Z,43.60
2018-07-12T09:14:36.981Z,46.70
2018-07-12T09:17:05.527Z,45.20
2018-07-12T09:19:34.009Z,43.30
2018-07-12T09:22:03.247Z,44.10
2018-07-12T09:24:31.853Z,43.80
2018-07-12T09:27:01.089Z,43.70
2018-07-12T09:29:29.686Z,43.10
2018-07-12T09:31:58.164Z,43.50
2018-07-12T09:34:26.778Z,44.20
2018-07-12T09:36:55.454Z,43.90
2018-07-12T09:39:25.074Z,43.60
2018-07-12T09:41:53.549Z,44.60
2018-07-12T09:44:22.044Z,43.30
2018-07-12T09:46:50.540Z,44.50
2018-07-12T09:49:19.259Z,43.90
2018-07-12T09:51:47.828Z,45.80
2018-07-12T09:54:17.038Z,43.90
2018-07-12T09:57:57.613Z,44.00
2018-07-12T10:00:31.691Z,44.30
2018-07-12T10:03:05.368Z,43.40
2018-07-12T10:05:39.172Z,43.60
2018-07-12T10:08:12.873Z,44.10
2018-07-12T10:10:47.228Z,44.30
2018-07-12T10:13:21.011Z,45.10
2018-07-12T10:15:53.835Z,44.80
2018-07-12T10:18:25.597Z,44.10
2018-07-12T10:20:54.105Z,45.10
2018-07-12T10:23:22.655Z,43.50
2018-07-12T10:25:51.102Z,45.80
2018-07-12T10:28:19.649Z,45.00
2018-07-12T10:30:48.713Z,45.50
2018-07-12T10:33:18.651Z,47.80
2018-07-12T10:35:48.105Z,43.60
2018-07-12T10:38:18.304Z,44.30
2018-07-12T10:40:47.349Z,45.00
2018-07-12T10:43:16.029Z,44.20
2018-07-12T10:45:44.667Z,42.30
2018-07-12T10:48:13.225Z,43.70
2018-07-12T10:50:41.743Z,43.50
2018-07-12T10:53:10.345Z,39.90
2018-07-12T10:55:38.929Z,41.70
2018-07-12T10:58:07.573Z,41.20
2018-07-12T11:00:36.124Z,43.70
2018-07-12T11:03:04.840Z,41.80
2018-07-12T11:05:33.357Z,42.20
2018-07-12T11:08:01.937Z,43.50
2018-07-12T11:10:30.625Z,39.70
2018-07-12T11:13:11.452Z,41.10
2018-07-12T11:15:40.885Z,41.60
2018-07-12T11:18:09.369Z,43.00
2018-07-12T11:20:37.854Z,42.80
2018-07-12T11:23:07.093Z,44.10
2018-07-12T11:25:35.612Z,42.00
2018-07-12T11:28:05.386Z,41.70
2018-07-12T11:33:38.933Z,46.40
2018-07-12T11:36:08.010Z,45.20
2018-07-12T11:38:37.921Z,43.70
2018-07-12T11:41:07.159Z,43.00
2018-07-12T11:43:35.869Z,42.90
2018-07-12T11:46:05.936Z,42.20
2018-07-12T11:48:35.850Z,43.50
2018-07-12T11:53:35.432Z,45.50
2018-07-12T11:56:03.956Z,41.60
2018-07-12T11:58:32.462Z,44.50
2018-07-12T12:01:02.103Z,46.30
2018-07-12T12:03:31.053Z,46.00
2018-07-12T12:05:59.543Z,45.40
2018-07-12T12:10:56.395Z,41.90
2018-07-12T12:13:26.017Z,42.20
2018-07-12T12:18:22.666Z,44.40
2018-07-12T12:20:51.249Z,43.20
2018-07-12T12:23:19.777Z,43.90
2018-07-12T12:25:49.233Z,41.40
2018-07-12T12:28:17.709Z,42.00
2018-07-12T12:30:46.368Z,42.30
2018-07-12T12:33:15.051Z,43.70
2018-07-12T12:35:43.597Z,43.80
2018-07-12T12:38:12.077Z,43.90
2018-07-12T12:40:40.566Z,43.90
2018-07-12T12:43:09.198Z,44.20
2018-07-12T12:45:37.752Z,42.90
2018-07-12T12:48:06.227Z,41.70
2018-07-12T12:50:36.227Z,43.50
2018-07-12T12:53:04.771Z,44.30
2018-07-12T12:55:33.289Z,45.30
2018-07-12T12:58:02.418Z,44.20
2018-07-12T13:00:30.992Z,42.70
2018-07-12T13:02:59.535Z,41.30
2018-07-12T13:05:28.041Z,42.60
2018-07-12T13:07:57.338Z,42.30
2018-07-12T13:10:27.646Z,41.30
2018-07-12T13:12:56.855Z,41.60
2018-07-12T13:15:25.361Z,42.60
2018-07-12T13:17:54.625Z,42.40
2018-07-12T13:20:23.148Z,43.30
2018-07-12T13:22:51.776Z,43.30
2018-07-12T13:25:20.309Z,43.20
2018-07-12T13:27:48.794Z,43.00
2018-07-12T13:30:17.263Z,44.10
2018-07-12T13:32:46.592Z,44.20
2018-07-12T13:35:15.070Z,44.80
2018-07-12T13:37:43.533Z,43.00
2018-07-12T13:40:12.133Z,41.50
2018-07-12T13:42:40.649Z,43.00
2018-07-12T13:47:37.741Z,43.20
2018-07-12T13:50:06.705Z,43.70
2018-07-12T13:52:35.842Z,44.20
2018-07-12T13:55:04.465Z,45.00
2018-07-12T13:57:33.113Z,44.60
2018-07-12T14:00:01.926Z,45.40
2018-07-12T14:02:30.456Z,45.30
2018-07-12T14:07:27.446Z,44.80
2018-07-12T14:09:55.942Z,45.00
2018-07-12T14:12:25.185Z,42.10
2018-07-12T14:14:53.666Z,41.70
2018-07-12T14:17:22.128Z,41.70
2018-07-12T14:19:50.796Z,43.10
2018-07-12T14:22:19.358Z,42.50
2018-07-12T14:24:48.177Z,42.40
2018-07-12T14:27:17.846Z,42.60
2018-07-12T14:29:46.310Z,42.40
2018-07-12T14:32:14.826Z,42.10
2018-07-12T14:34:43.488Z,42.30
2018-07-12T14:37:11.965Z,42.20
2018-07-12T14:42:08.756Z,41.30
2018-07-12T14:44:37.272Z,42.90
2018-07-12T14:47:05.417Z,42.90
2018-07-12T14:49:34.228Z,44.10
2018-07-12T14:52:02.728Z,42.80
2018-07-12T14:54:31.329Z,43.10
2018-07-12T14:56:59.881Z,43.70
2018-07-12T14:59:28.845Z,42.50
2018-07-12T15:01:57.404Z,42.20
2018-07-12T15:04:26.104Z,42.00
2018-07-12T15:06:54.636Z,41.70
2018-07-12T15:09:23.955Z,41.00
2018-07-12T15:11:52.833Z,42.50
2018-07-12T15:14:21.826Z,42.40
2018-07-12T15:16:50.408Z,42.10
2018-07-12T15:19:18.819Z,42.90
2018-07-12T15:21:47.369Z,43.30
2018-07-12T15:24:15.926Z,43.20
2018-07-12T15:26:44.425Z,42.80
2018-07-12T15:29:13.024Z,42.20
2018-07-12T15:31:41.838Z,42.60
2018-07-12T15:34:10.352Z,42.50
2018-07-12T15:36:39.514Z,42.80
2018-07-12T15:39:08.564Z,42.80
2018-07-12T15:41:37.630Z,43.10
2018-07-12T15:44:06.188Z,43.70
2018-07-12T15:46:34.901Z,41.70
2018-07-12T15:49:03.793Z,43.60
2018-07-12T15:51:32.432Z,42.80
2018-07-12T15:54:01.046Z,43.20
2018-07-12T15:56:29.698Z,41.60
2018-07-12T15:58:59.094Z,41.40
2018-07-12T16:01:27.702Z,41.20
2018-07-12T16:03:56.278Z,41.50
2018-07-12T16:06:25.297Z,41.50
2018-07-12T16:08:53.741Z,41.50
2018-07-12T16:11:22.292Z,40.50
2018-07-12T16:15:15.018Z,40.20
2018-07-12T16:17:44.189Z,41.00
2018-07-12T16:20:12.756Z,41.40
2018-07-12T16:22:41.404Z,41.40
2018-07-12T16:25:09.881Z,41.30
2018-07-12T16:27:38.389Z,41.90
2018-07-12T16:30:07.262Z,40.20
2018-07-12T16:32:36.355Z,41.00
2018-07-12T16:35:04.913Z,40.90
2018-07-12T16:37:33.381Z,39.70
2018-07-12T16:40:01.944Z,40.40
2018-07-12T16:42:30.505Z,40.10
2018-07-12T16:44:58.997Z,40.70
2018-07-12T16:47:27.521Z,41.20
2018-07-12T16:49:56.018Z,41.00
2018-07-12T16:52:25.149Z,40.90
2018-07-12T16:54:53.722Z,40.50
2018-07-12T16:57:22.303Z,40.00
2018-07-12T16:59:50.804Z,40.70
2018-07-12T17:02:19.324Z,41.00
2018-07-12T17:04:47.864Z,41.00
2018-07-12T17:07:16.452Z,41.40
2018-07-12T17:09:46.873Z,41.20
2018-07-12T17:12:15.389Z,41.30
2018-07-12T17:14:44.167Z,41.40
2018-07-12T17:17:13.029Z,41.70
2018-07-12T17:19:41.573Z,42.10
2018-07-12T17:22:10.055Z,42.60
2018-07-12T17:24:38.556Z,42.70
2018-07-12T17:27:07.100Z,42.70
2018-07-12T17:29:36.716Z,42.10
2018-07-12T17:32:05.253Z,41.10
2018-07-12T17:34:33.758Z,40.40
2018-07-12T17:37:02.294Z,40.20
2018-07-12T17:39:30.848Z,39.50
2018-07-12T17:41:59.322Z,39.80
2018-07-12T17:44:28.066Z,39.80
2018-07-12T17:46:56.554Z,39.60
2018-07-12T17:51:53.617Z,40.10
2018-07-12T17:54:22.158Z,39.70
2018-07-12T17:56:50.626Z,40.20
2018-07-12T17:59:19.153Z,38.90
2018-07-12T18:01:47.750Z,39.30
2018-07-12T18:04:16.243Z,39.50
2018-07-12T18:06:45.486Z,39.00
2018-07-12T18:09:14.250Z,39.70
2018-07-12T18:11:42.793Z,39.80
2018-07-12T18:14:11.274Z,40.90
2018-07-12T18:16:39.864Z,40.40
2018-07-12T18:19:08.326Z,40.90
2018-07-12T18:21:36.866Z,41.20
2018-07-12T18:24:05.484Z,41.80
2018-07-12T18:26:34.013Z,42.40
2018-07-12T18:29:03.134Z,42.30
2018-07-12T18:31:32.205Z,42.40
2018-07-12T18:34:00.763Z,42.60
2018-07-12T18:36:29.254Z,42.70
2018-07-12T18:38:57.724Z,42.90
2018-07-12T18:41:26.335Z,42.50
2018-07-12T18:43:54.795Z,42.30
2018-07-12T18:46:23.282Z,42.40
2018-07-12T18:48:51.861Z,42.10
2018-07-12T18:51:20.365Z,42.10
2018-07-12T18:53:48.845Z,41.90
2018-07-12T18:58:45.553Z,42.60
2018-07-12T19:01:14.173Z,42.10
2018-07-12T19:06:10.989Z,42.00
2018-07-12T19:08:39.619Z,42.30
2018-07-12T19:11:08.245Z,42.30
2018-07-12T19:13:36.706Z,42.30
2018-07-12T19:16:05.174Z,42.70
2018-07-12T19:18:33.668Z,42.00
2018-07-12T19:21:02.105Z,41.70
2018-07-12T19:23:31.537Z,42.00
2018-07-12T19:26:00.030Z,42.50
2018-07-12T19:30:56.749Z,42.90
2018-07-12T19:33:25.198Z,42.90
2018-07-12T19:35:53.678Z,43.30
2018-07-12T19:38:22.153Z,43.40
2018-07-12T19:40:50.654Z,43.30
2018-07-12T19:43:19.092Z,43.70
2018-07-12T19:45:47.585Z,43.70
2018-07-12T19:48:16.093Z,43.90
2018-07-12T19:50:44.817Z,43.40
2018-07-12T19:53:13.313Z,43.50
2018-07-12T19:58:09.981Z,42.90
2018-07-12T20:00:38.872Z,42.60
2018-07-12T20:03:08.072Z,42.80
2018-07-12T20:05:36.549Z,43.00
2018-07-12T20:08:05.230Z,43.60
2018-07-12T20:10:33.685Z,44.00
2018-07-12T20:13:02.165Z,44.60
2018-07-12T20:15:30.604Z,45.50
2018-07-12T20:17:59.205Z,45.70
2018-07-12T20:20:27.703Z,45.60
2018-07-12T20:22:56.240Z,46.40
2018-07-12T20:25:24.691Z,45.30
2018-07-12T20:27:53.283Z,46.00
2018-07-12T20:30:21.728Z,45.10
2018-07-12T20:32:50.217Z,44.30
2018-07-12T20:35:18.746Z,44.40
2018-07-12T20:37:47.227Z,45.10
2018-07-12T20:40:15.714Z,44.60
2018-07-12T20:45:12.332Z,45.00
2018-07-12T20:47:40.927Z,44.80
2018-07-12T20:50:09.438Z,46.10
2018-07-12T20:52:38.414Z,45.40
2018-07-12T20:55:07.524Z,45.30
2018-07-12T20:57:36.002Z,46.20
2018-07-12T21:00:04.593Z,47.10
2018-07-12T21:02:33.145Z,47.20
2018-07-12T21:05:01.726Z,46.90
2018-07-12T21:07:30.261Z,46.70
2018-07-12T21:09:58.704Z,46.60
2018-07-12T21:14:55.868Z,46.70
2018-07-12T21:19:52.647Z,48.40
2018-07-12T21:22:21.116Z,48.80
2018-07-12T21:24:49.848Z,50.00
2018-07-12T21:27:18.278Z,50.60
2018-07-12T21:29:46.865Z,49.20
2018-07-12T21:32:15.884Z,50.70
2018-07-12T21:34:45.024Z,49.80
2018-07-12T21:37:13.770Z,50.30
2018-07-12T21:39:42.273Z,50.50
2018-07-12T21:42:11.706Z,49.60
2018-07-12T21:44:40.232Z,48.30
2018-07-12T21:47:08.744Z,47.70
2018-07-12T21:49:37.306Z,49.70
2018-07-12T21:52:05.940Z,50.00
2018-07-12T21:54:34.325Z,51.10
2018-07-12T21:57:02.861Z,54.10
2018-07-12T21:59:31.998Z,52.00
2018-07-12T22:02:00.791Z,51.50
2018-07-12T22:04:29.285Z,49.90
2018-07-12T22:08:11.812Z,49.10
2018-07-12T22:13:10.834Z,50.00
2018-07-12T22:15:39.304Z,53.20
2018-07-12T22:20:36.375Z,51.40
2018-07-12T22:23:04.825Z,52.50
2018-07-12T22:25:33.720Z,53.50
2018-07-12T22:28:02.272Z,54.20
2018-07-12T22:30:31.752Z,55.20
2018-07-12T22:33:01.545Z,56.80
2018-07-12T22:35:30.033Z,57.20
2018-07-12T22:40:28.309Z,53.30
2018-07-12T22:42:56.980Z,55.80
2018-07-12T22:45:25.945Z,54.40
2018-07-12T22:47:55.131Z,53.90
2018-07-12T22:50:23.528Z,55.60
2018-07-12T22:52:52.091Z,54.40
2018-07-12T22:55:20.586Z,52.40
2018-07-12T22:57:49.113Z,53.30
2018-07-12T23:00:17.609Z,54.60
2018-07-12T23:02:46.073Z,57.10
2018-07-12T23:05:14.667Z,57.90
2018-07-12T23:07:43.153Z,56.40
2018-07-12T23:10:11.677Z,56.40
2018-07-12T23:12:40.109Z,56.70
2018-07-12T23:15:08.578Z,53.70
2018-07-12T23:17:37.018Z,53.70
2018-07-12T23:20:06.121Z,53.60
2018-07-12T23:22:34.587Z,55.30
2018-07-12T23:25:03.790Z,55.80
2018-07-12T23:27:32.303Z,57.30
2018-07-12T23:30:00.729Z,56.90
2018-07-12T23:32:29.276Z,58.60
2018-07-12T23:34:57.761Z,59.10
2018-07-12T23:37:26.189Z,59.50
2018-07-12T23:39:54.613Z,59.00
2018-07-12T23:42:23.133Z,59.40
2018-07-12T23:44:51.541Z,58.10
2018-07-12T23:47:19.977Z,59.40
2018-07-12T23:49:48.527Z,60.00
2018-07-12T23:52:16.914Z,60.00
2018-07-12T23:54:45.374Z,60.10
2018-07-12T23:57:13.843Z,58.70
2018-07-12T23:59:42.316Z,57.50
